createdAt,value
2023-02-15T00:00:24.915Z,17.22
2023-02-15T00:02:52.077Z,17.20
2023-02-15T00:05:18.472Z,17.18
2023-02-15T00:07:45.101Z,17.16
2023-02-15T00:10:11.352Z,17.13
2023-02-15T00:12:38.522Z,17.12
2023-02-15T00:15:04.786Z,17.11
2023-02-15T00:17:31.312Z,17.10
2023-02-15T00:19:58.410Z,17.08
2023-02-15T00:22:24.815Z,17.07
2023-02-15T00:24:51.433Z,17.06
2023-02-15T00:27:18.558Z,17.04
2023-02-15T00:29:44.882Z,17.03
2023-02-15T00:32:11.801Z,17.00
2023-02-15T00:34:38.301Z,16.99
2023-02-15T00:37:04.629Z,16.98
2023-02-15T00:39:31.124Z,16.97
2023-02-15T00:41:57.472Z,16.94
2023-02-15T00:44:23.896Z,16.93
2023-02-15T00:46:50.263Z,16.92
2023-02-15T00:49:16.520Z,16.92
2023-02-15T00:51:43.368Z,16.91
2023-02-15T00:54:09.740Z,16.91
2023-02-15T00:56:36.062Z,16.91
2023-02-15T00:59:02.409Z,16.89
2023-02-15T01:01:29.396Z,16.89
2023-02-15T01:03:56.751Z,16.88
2023-02-15T01:06:23.293Z,16.87
2023-02-15T01:08:49.605Z,16.86
2023-02-15T01:11:15.994Z,16.85
2023-02-15T01:13:43.261Z,16.84
2023-02-15T01:16:09.669Z,16.84
2023-02-15T01:18:36.009Z,16.83
2023-02-15T01:21:03.077Z,16.81
2023-02-15T01:23:29.508Z,16.79
2023-02-15T01:25:55.939Z,16.78
2023-02-15T01:28:22.364Z,16.78
2023-02-15T01:30:52.552Z,16.77
2023-02-15T01:33:19.207Z,16.75
2023-02-15T01:35:45.693Z,16.75
2023-02-15T01:38:12.102Z,16.72
2023-02-15T01:40:38.374Z,16.71
2023-02-15T01:43:04.928Z,16.71
2023-02-15T01:45:31.780Z,16.68
2023-02-15T01:47:58.156Z,16.67
2023-02-15T01:50:24.630Z,16.66
2023-02-15T01:52:51.666Z,16.63
2023-02-15T01:55:18.372Z,16.63
2023-02-15T01:57:44.825Z,16.62
2023-02-15T02:00:11.239Z,16.61
2023-02-15T02:02:38.609Z,16.60
2023-02-15T02:05:05.339Z,16.57
2023-02-15T02:07:31.722Z,16.56
2023-02-15T02:09:58.341Z,16.55
2023-02-15T02:12:24.614Z,16.55
2023-02-15T02:14:50.904Z,16.53
2023-02-15T02:17:17.300Z,16.51
2023-02-15T02:19:44.322Z,16.50
2023-02-15T02:22:11.034Z,16.49
2023-02-15T02:24:37.415Z,16.48
2023-02-15T02:27:03.983Z,16.47
2023-02-15T02:29:30.906Z,16.46
2023-02-15T02:31:57.400Z,16.46
2023-02-15T02:34:23.707Z,16.45
2023-02-15T02:36:50.930Z,16.44
2023-02-15T02:39:17.228Z,16.42
2023-02-15T02:41:43.560Z,16.42
2023-02-15T02:44:09.982Z,16.41
2023-02-15T02:46:36.285Z,16.40
2023-02-15T02:49:02.669Z,16.39
2023-02-15T02:51:32.691Z,16.38
2023-02-15T02:53:59.253Z,16.37
2023-02-15T02:56:25.614Z,16.37
2023-02-15T02:58:51.922Z,16.34
2023-02-15T03:01:18.344Z,16.33
2023-02-15T03:03:44.703Z,16.33
2023-02-15T03:06:11.002Z,16.32
2023-02-15T03:08:37.386Z,16.30
2023-02-15T03:11:04.349Z,16.29
2023-02-15T03:13:30.762Z,16.29
2023-02-15T03:15:57.509Z,16.27
2023-02-15T03:18:25.258Z,16.27
2023-02-15T03:20:51.651Z,16.25
2023-02-15T03:23:18.538Z,16.24
2023-02-15T03:25:44.818Z,16.22
2023-02-15T03:28:11.088Z,16.23
2023-02-15T03:30:38.544Z,16.23
2023-02-15T03:33:04.891Z,16.22
2023-02-15T03:35:31.249Z,16.22
2023-02-15T03:37:58.657Z,16.22
2023-02-15T03:40:25.799Z,16.21
2023-02-15T03:42:52.326Z,16.21
2023-02-15T03:45:18.602Z,16.21
2023-02-15T03:47:45.952Z,16.20
2023-02-15T03:50:12.305Z,16.19
2023-02-15T03:52:38.619Z,16.19
2023-02-15T03:55:05.789Z,16.19
2023-02-15T03:57:33.517Z,16.17
2023-02-15T04:00:00.068Z,16.16
2023-02-15T04:02:27.283Z,16.16
2023-02-15T04:04:53.740Z,16.15
2023-02-15T04:07:20.493Z,16.15
2023-02-15T04:09:47.051Z,16.14
2023-02-15T04:12:16.004Z,16.14
2023-02-15T04:14:43.198Z,16.11
2023-02-15T04:17:09.542Z,16.10
2023-02-15T04:19:36.165Z,16.10
2023-02-15T04:22:02.493Z,16.11
2023-02-15T04:24:28.721Z,16.11
2023-02-15T04:26:55.147Z,16.12
2023-02-15T04:29:21.431Z,16.11
2023-02-15T04:31:47.867Z,16.10
2023-02-15T04:34:14.462Z,16.10
2023-02-15T04:36:41.723Z,16.09
2023-02-15T04:39:08.755Z,16.09
2023-02-15T04:41:35.039Z,16.09
2023-02-15T04:44:02.696Z,16.10
2023-02-15T04:46:29.006Z,16.11
2023-02-15T04:48:58.506Z,16.12
2023-02-15T04:51:25.504Z,16.14
2023-02-15T04:53:51.996Z,16.16
2023-02-15T04:56:18.741Z,16.18
2023-02-15T04:58:46.194Z,16.18
2023-02-15T05:01:12.641Z,16.19
2023-02-15T05:03:39.346Z,16.21
2023-02-15T05:06:05.653Z,16.22
2023-02-15T05:08:32.725Z,16.24
2023-02-15T05:10:59.180Z,16.25
2023-02-15T05:13:25.583Z,16.26
2023-02-15T05:15:51.950Z,16.28
2023-02-15T05:18:18.772Z,16.27
2023-02-15T05:20:45.592Z,16.29
2023-02-15T05:23:11.890Z,16.29
2023-02-15T05:25:38.677Z,16.30
2023-02-15T05:28:05.367Z,16.33
2023-02-15T05:30:43.251Z,16.35
2023-02-15T05:33:12.121Z,16.36
2023-02-15T05:35:38.825Z,16.35
2023-02-15T05:38:05.159Z,16.36
2023-02-15T05:40:31.493Z,16.38
2023-02-15T05:42:57.913Z,16.39
2023-02-15T05:45:24.896Z,16.41
2023-02-15T05:47:51.290Z,16.43
2023-02-15T05:50:17.668Z,16.44
2023-02-15T05:52:44.882Z,16.47
2023-02-15T05:55:11.326Z,16.48
2023-02-15T05:57:37.669Z,16.49
2023-02-15T06:00:04.996Z,16.52
2023-02-15T06:02:31.384Z,16.54
2023-02-15T06:04:57.625Z,16.55
2023-02-15T06:07:24.782Z,16.57
2023-02-15T06:09:51.022Z,16.59
2023-02-15T06:12:17.332Z,16.60
2023-02-15T06:14:43.875Z,16.62
2023-02-15T06:17:10.180Z,16.63
2023-02-15T06:19:37.270Z,16.64
2023-02-15T06:22:04.886Z,16.67
2023-02-15T06:24:31.251Z,16.69
2023-02-15T06:26:59.462Z,16.70
2023-02-15T06:29:25.831Z,16.71
2023-02-15T06:31:52.266Z,16.72
2023-02-15T06:34:18.679Z,16.73
2023-02-15T06:36:46.005Z,16.72
2023-02-15T06:39:12.417Z,16.73
2023-02-15T06:41:39.962Z,16.74
2023-02-15T06:44:06.326Z,16.75
2023-02-15T06:46:32.812Z,16.74
2023-02-15T06:48:59.494Z,16.75
2023-02-15T06:51:25.895Z,16.75
2023-02-15T06:53:52.272Z,16.75
2023-02-15T06:56:18.730Z,16.74
2023-02-15T06:58:47.204Z,16.74
2023-02-15T07:01:14.577Z,16.73
2023-02-15T07:03:44.972Z,16.73
2023-02-15T07:06:11.348Z,16.82
2023-02-15T07:08:38.030Z,16.98
2023-02-15T07:11:04.458Z,17.08
2023-02-15T07:13:30.865Z,17.19
2023-02-15T07:15:57.169Z,17.29
2023-02-15T07:18:23.750Z,17.40
2023-02-15T07:20:49.986Z,17.51
2023-02-15T07:23:16.367Z,17.63
2023-02-15T07:25:43.201Z,17.74
2023-02-15T07:28:09.686Z,17.85
2023-02-15T07:30:36.284Z,17.96
2023-02-15T07:33:05.093Z,18.07
2023-02-15T07:35:34.458Z,18.18
2023-02-15T07:38:01.128Z,18.27
2023-02-15T07:40:27.536Z,18.36
2023-02-15T07:42:54.146Z,18.44
2023-02-15T07:45:21.436Z,18.52
2023-02-15T07:47:48.549Z,18.61
2023-02-15T07:50:15.865Z,18.68
2023-02-15T07:52:42.363Z,18.74
2023-02-15T07:55:08.719Z,18.80
2023-02-15T07:57:35.517Z,18.86
2023-02-15T08:00:08.198Z,18.94
2023-02-15T08:02:34.610Z,19.02
2023-02-15T08:05:00.973Z,19.08
2023-02-15T08:07:27.234Z,19.17
2023-02-15T08:09:53.530Z,19.19
2023-02-15T08:12:19.781Z,19.16
2023-02-15T08:14:46.210Z,19.09
2023-02-15T08:17:12.692Z,18.98
2023-02-15T08:19:39.005Z,18.83
2023-02-15T08:22:06.176Z,18.74
2023-02-15T08:24:32.559Z,18.74
2023-02-15T08:26:58.871Z,18.80
2023-02-15T08:29:25.252Z,18.80
2023-02-15T08:31:51.716Z,18.66
2023-02-15T08:34:18.885Z,18.59
2023-02-15T08:36:45.807Z,18.54
2023-02-15T08:39:12.266Z,18.50
2023-02-15T08:41:38.752Z,18.48
2023-02-15T08:44:05.029Z,18.44
2023-02-15T08:46:31.316Z,18.41
2023-02-15T08:48:59.875Z,18.40
2023-02-15T08:51:26.366Z,18.40
2023-02-15T08:53:53.486Z,18.38
2023-02-15T08:56:19.789Z,18.38
2023-02-15T08:58:46.419Z,18.41
2023-02-15T09:01:12.836Z,18.43
2023-02-15T09:03:39.178Z,18.45
2023-02-15T09:06:05.486Z,18.69
2023-02-15T09:08:31.765Z,19.05
2023-02-15T09:10:58.905Z,19.23
2023-02-15T09:13:26.111Z,19.14
2023-02-15T09:15:52.382Z,19.02
2023-02-15T09:18:18.819Z,19.02
2023-02-15T09:20:45.161Z,19.03
2023-02-15T09:23:21.918Z,19.05
2023-02-15T09:25:52.826Z,19.08
2023-02-15T09:28:19.759Z,19.15
2023-02-15T09:30:46.082Z,19.21
2023-02-15T09:33:13.128Z,19.22
2023-02-15T09:35:39.724Z,19.31
2023-02-15T09:38:06.008Z,19.30
2023-02-15T09:40:32.318Z,19.33
2023-02-15T09:42:58.881Z,19.36
2023-02-15T09:45:25.569Z,19.40
2023-02-15T09:47:51.890Z,19.45
2023-02-15T09:50:18.189Z,19.47
2023-02-15T09:52:44.544Z,19.48
2023-02-15T09:55:10.994Z,19.44
2023-02-15T09:57:38.114Z,19.49
2023-02-15T10:00:05.977Z,19.53
2023-02-15T10:02:32.278Z,19.56
2023-02-15T10:04:58.649Z,19.58
2023-02-15T10:07:25.724Z,19.65
2023-02-15T10:09:52.179Z,19.66
2023-02-15T10:12:18.913Z,19.67
2023-02-15T10:14:45.194Z,19.69
2023-02-15T10:17:11.561Z,19.70
2023-02-15T10:19:38.004Z,19.68
2023-02-15T10:22:04.353Z,19.66
2023-02-15T10:24:30.740Z,19.67
2023-02-15T10:26:57.127Z,19.75
2023-02-15T10:29:23.671Z,19.74
2023-02-15T10:31:51.521Z,19.78
2023-02-15T10:34:18.216Z,19.79
2023-02-15T10:36:44.868Z,19.84
2023-02-15T10:39:11.250Z,19.85
2023-02-15T10:41:37.629Z,19.89
2023-02-15T10:44:04.861Z,19.92
2023-02-15T10:46:31.380Z,19.94
2023-02-15T10:49:04.555Z,19.97
2023-02-15T10:51:30.925Z,19.95
2023-02-15T10:53:57.456Z,19.99
2023-02-15T10:56:23.775Z,19.94
2023-02-15T11:01:34.566Z,20.06
2023-02-15T11:04:01.036Z,20.08
2023-02-15T11:06:27.403Z,20.13
2023-02-15T11:08:53.893Z,20.16
2023-02-15T11:11:20.455Z,20.19
2023-02-15T11:13:46.841Z,20.20
2023-02-15T11:16:14.064Z,20.21
2023-02-15T11:18:42.817Z,20.24
2023-02-15T11:21:09.348Z,20.27
2023-02-15T11:23:35.669Z,20.30
2023-02-15T11:26:02.147Z,20.32
2023-02-15T11:28:28.569Z,20.33
2023-02-15T11:30:55.925Z,20.36
2023-02-15T11:33:22.278Z,20.37
2023-02-15T11:35:48.577Z,20.39
2023-02-15T11:38:14.940Z,20.41
2023-02-15T11:40:41.260Z,20.42
2023-02-15T11:43:07.643Z,20.42
2023-02-15T11:45:33.993Z,20.44
2023-02-15T11:48:01.242Z,20.44
2023-02-15T11:50:28.113Z,20.46
2023-02-15T11:52:55.687Z,20.47
2023-02-15T11:55:22.043Z,20.46
2023-02-15T11:57:48.422Z,20.50
2023-02-15T12:00:14.721Z,20.52
2023-02-15T12:02:41.414Z,20.53
2023-02-15T12:05:08.102Z,20.53
2023-02-15T12:07:34.377Z,20.53
2023-02-15T12:10:01.156Z,20.56
2023-02-15T12:12:27.495Z,20.55
2023-02-15T12:14:53.814Z,20.57
2023-02-15T12:17:20.914Z,20.57
2023-02-15T12:19:47.340Z,20.58
2023-02-15T12:22:14.406Z,20.59
2023-02-15T12:24:40.907Z,20.60
2023-02-15T12:27:07.490Z,20.60
2023-02-15T12:29:34.201Z,20.60
2023-02-15T12:32:00.641Z,20.61
2023-02-15T12:34:27.016Z,20.62
2023-02-15T12:36:53.793Z,20.62
2023-02-15T12:39:20.288Z,20.64
2023-02-15T12:41:47.022Z,20.63
2023-02-15T12:44:14.656Z,20.65
2023-02-15T12:46:41.188Z,20.65
2023-02-15T12:49:07.582Z,20.66
2023-02-15T12:51:33.880Z,20.65
2023-02-15T12:54:00.156Z,20.66
2023-02-15T12:56:26.482Z,20.64
2023-02-15T12:58:53.809Z,20.65
2023-02-15T13:01:20.206Z,20.66
2023-02-15T13:03:47.209Z,20.66
2023-02-15T13:06:13.600Z,20.66
2023-02-15T13:08:39.992Z,20.66
2023-02-15T13:11:06.308Z,20.68
2023-02-15T13:13:33.157Z,20.70
2023-02-15T13:16:00.548Z,20.71
2023-02-15T13:18:26.968Z,20.72
2023-02-15T13:20:53.237Z,20.73
2023-02-15T13:23:19.710Z,20.72
2023-02-15T13:25:46.729Z,20.72
2023-02-15T13:28:13.312Z,20.71
2023-02-15T13:30:39.615Z,20.69
2023-02-15T13:33:05.895Z,20.66
2023-02-15T13:35:32.284Z,20.64
2023-02-15T13:37:59.398Z,20.61
2023-02-15T13:40:26.125Z,20.58
2023-02-15T13:42:52.478Z,20.57
2023-02-15T13:45:19.154Z,20.56
2023-02-15T13:47:46.092Z,20.53
2023-02-15T13:50:12.649Z,20.50
2023-02-15T13:52:39.928Z,20.49
2023-02-15T13:55:06.300Z,20.47
2023-02-15T13:57:32.950Z,20.43
2023-02-15T13:59:59.663Z,20.41
2023-02-15T14:02:28.647Z,20.40
2023-02-15T14:04:55.024Z,20.37
2023-02-15T14:07:21.877Z,20.35
2023-02-15T14:09:48.916Z,20.33
2023-02-15T14:12:15.254Z,20.30
2023-02-15T14:14:41.590Z,20.28
2023-02-15T14:17:07.997Z,20.26
2023-02-15T14:19:34.430Z,20.24
2023-02-15T14:22:00.748Z,20.22
2023-02-15T14:24:27.220Z,20.21
2023-02-15T14:26:53.594Z,20.17
2023-02-15T14:29:19.910Z,20.13
2023-02-15T14:31:46.679Z,20.09
2023-02-15T14:34:13.979Z,20.05
2023-02-15T14:36:40.569Z,20.01
2023-02-15T14:39:07.307Z,19.99
2023-02-15T14:41:33.666Z,19.98
2023-02-15T14:43:59.978Z,19.95
2023-02-15T14:46:26.616Z,19.93
2023-02-15T14:48:53.040Z,19.90
2023-02-15T14:51:19.361Z,19.90
2023-02-15T14:53:45.736Z,19.86
2023-02-15T14:56:15.401Z,19.82
2023-02-15T14:58:42.982Z,19.80
2023-02-15T15:01:09.374Z,19.78
2023-02-15T15:03:35.837Z,19.76
2023-02-15T15:06:05.502Z,19.73
2023-02-15T15:08:32.205Z,19.70
2023-02-15T15:11:00.732Z,19.67
2023-02-15T15:13:33.318Z,19.65
2023-02-15T15:16:00.149Z,19.62
2023-02-15T15:18:27.262Z,19.60
2023-02-15T15:20:54.152Z,19.57
2023-02-15T15:23:21.592Z,19.56
2023-02-15T15:25:49.355Z,19.53
2023-02-15T15:28:15.821Z,19.50
2023-02-15T15:30:42.736Z,19.48
2023-02-15T15:33:09.157Z,19.46
2023-02-15T15:35:35.733Z,19.42
2023-02-15T15:38:02.363Z,19.40
2023-02-15T15:40:28.696Z,19.38
2023-02-15T15:42:55.012Z,19.36
2023-02-15T15:45:22.171Z,19.34
2023-02-15T15:47:53.399Z,19.32
2023-02-15T15:50:25.864Z,19.29
2023-02-15T15:52:52.614Z,19.27
2023-02-15T15:55:18.986Z,19.25
2023-02-15T15:57:45.821Z,19.21
2023-02-15T16:00:12.271Z,19.19
2023-02-15T16:02:39.581Z,19.17
2023-02-15T16:05:06.176Z,19.13
2023-02-15T16:07:33.314Z,19.12
2023-02-15T16:09:59.648Z,19.10
2023-02-15T16:12:27.706Z,19.09
2023-02-15T16:14:54.164Z,19.06
2023-02-15T16:17:20.748Z,19.07
2023-02-15T16:19:47.140Z,19.07
2023-02-15T16:22:13.518Z,19.06
2023-02-15T16:24:40.725Z,19.06
2023-02-15T16:27:07.036Z,19.07
2023-02-15T16:29:33.528Z,19.09
2023-02-15T16:31:59.953Z,19.09
2023-02-15T16:34:26.344Z,19.11
2023-02-15T16:36:52.843Z,19.12
2023-02-15T16:39:19.605Z,19.13
2023-02-15T16:41:46.972Z,19.13
2023-02-15T16:44:13.324Z,19.14
2023-02-15T16:46:39.716Z,19.15
2023-02-15T16:49:06.098Z,19.13
2023-02-15T16:51:32.658Z,19.14
2023-02-15T16:53:59.249Z,19.13
2023-02-15T16:56:26.360Z,19.12
2023-02-15T16:58:53.791Z,19.11
2023-02-15T17:01:20.167Z,19.09
2023-02-15T17:03:46.587Z,19.07
2023-02-15T17:06:13.201Z,19.05
2023-02-15T17:08:39.550Z,19.02
2023-02-15T17:11:06.227Z,19.00
2023-02-15T17:13:33.611Z,18.96
2023-02-15T17:15:59.984Z,18.94
2023-02-15T17:18:26.493Z,18.92
2023-02-15T17:20:52.951Z,18.91
2023-02-15T17:23:19.305Z,18.87
2023-02-15T17:25:47.058Z,18.83
2023-02-15T17:28:13.429Z,18.80
2023-02-15T17:30:41.036Z,18.77
2023-02-15T17:33:12.465Z,18.75
2023-02-15T17:35:39.499Z,18.72
2023-02-15T17:38:05.967Z,18.69
2023-02-15T17:40:32.408Z,18.67
2023-02-15T17:42:58.821Z,18.65
2023-02-15T17:45:25.714Z,18.61
2023-02-15T17:47:53.182Z,18.58
2023-02-15T17:50:19.577Z,18.53
2023-02-15T17:52:46.075Z,18.51
2023-02-15T17:55:13.119Z,18.50
2023-02-15T17:57:39.431Z,18.48
2023-02-15T18:00:06.363Z,18.46
2023-02-15T18:02:32.850Z,18.46
2023-02-15T18:04:59.147Z,18.46
2023-02-15T18:07:25.531Z,18.46
2023-02-15T18:09:51.838Z,18.45
2023-02-15T18:12:18.854Z,18.43
2023-02-15T18:14:45.347Z,18.43
2023-02-15T18:17:14.913Z,18.42
2023-02-15T18:19:41.399Z,18.40
2023-02-15T18:22:08.374Z,18.40
2023-02-15T18:24:35.772Z,18.39
2023-02-15T18:27:02.449Z,18.37
2023-02-15T18:29:29.185Z,18.35
2023-02-15T18:31:55.896Z,18.32
2023-02-15T18:34:22.323Z,18.30
2023-02-15T18:36:48.718Z,18.29
2023-02-15T18:39:15.777Z,18.26
2023-02-15T18:41:42.112Z,18.24
2023-02-15T18:44:08.900Z,18.20
2023-02-15T18:46:35.894Z,18.20
2023-02-15T18:49:02.222Z,18.17
2023-02-15T18:51:28.537Z,18.14
2023-02-15T18:53:54.846Z,18.12
2023-02-15T18:56:21.188Z,18.11
2023-02-15T18:58:47.946Z,18.08
2023-02-15T19:01:14.288Z,18.05
2023-02-15T19:03:41.150Z,18.04
2023-02-15T19:06:10.641Z,18.02
2023-02-15T19:08:40.233Z,18.00
2023-02-15T19:11:06.855Z,17.98
2023-02-15T19:13:36.110Z,17.96
2023-02-15T19:16:02.896Z,17.95
2023-02-15T19:18:29.494Z,17.93
2023-02-15T19:20:55.861Z,17.93
2023-02-15T19:23:23.170Z,17.91
2023-02-15T19:25:49.831Z,17.89
2023-02-15T19:28:18.915Z,17.88
2023-02-15T19:30:46.131Z,17.86
2023-02-15T19:33:12.903Z,17.86
2023-02-15T19:35:39.473Z,17.88
2023-02-15T19:38:06.253Z,17.86
2023-02-15T19:40:32.823Z,17.87
2023-02-15T19:42:59.665Z,17.87
2023-02-15T19:45:26.347Z,17.88
2023-02-15T19:47:52.773Z,17.88
2023-02-15T19:50:19.149Z,17.88
2023-02-15T19:52:45.616Z,17.87
2023-02-15T19:55:12.103Z,17.86
2023-02-15T19:57:38.790Z,17.87
2023-02-15T20:00:20.066Z,17.86
2023-02-15T20:02:48.805Z,17.85
2023-02-15T20:05:15.111Z,17.84
2023-02-15T20:07:41.431Z,17.84
2023-02-15T20:10:09.277Z,17.83
2023-02-15T20:12:35.762Z,17.80
2023-02-15T20:15:02.192Z,17.80
2023-02-15T20:17:28.799Z,17.79
2023-02-15T20:19:55.294Z,17.79
2023-02-15T20:22:22.122Z,17.76
2023-02-15T20:24:51.852Z,17.75
2023-02-15T20:27:18.305Z,17.74
2023-02-15T20:29:53.289Z,17.71
2023-02-15T20:32:27.645Z,17.70
2023-02-15T20:34:55.418Z,17.68
2023-02-15T20:37:21.735Z,17.68
2023-02-15T20:39:48.388Z,17.66
2023-02-15T20:42:14.812Z,17.65
2023-02-15T20:44:41.415Z,17.65
2023-02-15T20:47:08.189Z,17.67
2023-02-15T20:49:38.473Z,17.67
2023-02-15T20:52:06.129Z,17.67
2023-02-15T20:54:32.757Z,17.66
2023-02-15T20:56:59.109Z,17.65
2023-02-15T20:59:25.415Z,17.65
2023-02-15T21:01:51.780Z,17.65
2023-02-15T21:04:18.210Z,17.63
2023-02-15T21:06:44.527Z,17.62
2023-02-15T21:09:11.567Z,17.60
2023-02-15T21:11:37.966Z,17.62
2023-02-15T21:14:04.554Z,17.61
2023-02-15T21:16:30.938Z,17.60
2023-02-15T21:19:03.940Z,17.60
2023-02-15T21:21:30.444Z,17.59
2023-02-15T21:23:57.042Z,17.58
2023-02-15T21:26:23.434Z,17.57
2023-02-15T21:28:52.286Z,17.56
2023-02-15T21:31:19.691Z,17.50
2023-02-15T21:33:47.243Z,17.55
2023-02-15T21:36:13.838Z,17.54
2023-02-15T21:38:41.269Z,17.54
2023-02-15T21:41:07.612Z,17.53
2023-02-15T21:43:33.983Z,17.52
2023-02-15T21:46:00.634Z,17.50
2023-02-15T21:48:27.023Z,17.51
2023-02-15T21:50:53.340Z,17.49
2023-02-15T21:53:19.664Z,17.48
2023-02-15T21:55:46.277Z,17.48
2023-02-15T21:58:12.759Z,17.47
2023-02-15T22:00:39.212Z,17.46
2023-02-15T22:03:05.497Z,17.45
2023-02-15T22:05:31.885Z,17.45
2023-02-15T22:07:59.146Z,17.44
2023-02-15T22:10:25.567Z,17.43
2023-02-15T22:12:52.024Z,17.43
2023-02-15T22:18:02.868Z,17.41
2023-02-15T22:20:32.964Z,17.38
2023-02-15T22:22:59.383Z,17.38
2023-02-15T22:25:26.823Z,17.37
2023-02-15T22:27:53.260Z,17.35
2023-02-15T22:30:20.636Z,17.35
2023-02-15T22:32:47.750Z,17.33
2023-02-15T22:35:14.363Z,17.32
2023-02-15T22:37:43.124Z,17.31
2023-02-15T22:40:09.542Z,17.30
2023-02-15T22:42:35.809Z,17.28
2023-02-15T22:45:02.092Z,17.26
2023-02-15T22:47:28.385Z,17.25
2023-02-15T22:49:54.730Z,17.24
2023-02-15T22:52:21.566Z,17.24
2023-02-15T22:54:47.869Z,17.24
2023-02-15T22:57:14.642Z,17.23
2023-02-15T22:59:41.763Z,17.23
2023-02-15T23:02:08.165Z,17.22
2023-02-15T23:04:35.114Z,17.22
2023-02-15T23:07:01.517Z,17.20
2023-02-15T23:09:28.598Z,17.18
2023-02-15T23:11:54.910Z,17.16
2023-02-15T23:14:21.892Z,17.16
2023-02-15T23:16:48.804Z,17.15
2023-02-15T23:19:15.329Z,17.14
2023-02-15T23:21:41.842Z,17.14
2023-02-15T23:24:08.916Z,17.11
2023-02-15T23:26:35.256Z,17.10
2023-02-15T23:29:02.283Z,17.08
2023-02-15T23:31:30.116Z,17.07
2023-02-15T23:33:57.223Z,17.05
2023-02-15T23:36:23.936Z,17.05
2023-02-15T23:38:51.409Z,17.03
2023-02-15T23:41:17.651Z,17.02
2023-02-15T23:43:44.051Z,17.01
2023-02-15T23:46:11.195Z,17.00
2023-02-15T23:48:37.713Z,16.98
2023-02-15T23:51:04.789Z,16.96
2023-02-15T23:53:31.305Z,16.94
2023-02-15T23:55:57.830Z,16.94
2023-02-15T23:58:24.362Z,16.92
